createdAt,value
2018-12-29T00:01:23.140Z,41.23
2018-12-29T00:03:52.090Z,46.60
2018-12-29T00:06:21.079Z,49.77
2018-12-29T00:08:50.011Z,52.45
2018-12-29T00:11:19.984Z,45.98
2018-12-29T00:13:49.152Z,44.03
2018-12-29T00:16:18.039Z,52.93
2018-12-29T00:18:47.227Z,44.63
2018-12-29T00:21:16.930Z,42.35
2018-12-29T00:23:45.779Z,46.28
2018-12-29T00:26:14.743Z,45.12
2018-12-29T00:28:44.004Z,50.63
2018-12-29T00:31:13.024Z,46.02
2018-12-29T00:33:41.974Z,53.30
2018-12-29T00:36:30.112Z,49.88
2018-12-29T00:38:58.962Z,55.58
2018-12-29T00:41:27.890Z,47.15
2018-12-29T00:43:56.735Z,58.68
2018-12-29T00:46:26.015Z,46.63
2018-12-29T00:48:54.858Z,42.85
2018-12-29T00:51:23.879Z,49.83
2018-12-29T00:53:52.977Z,54.80
2018-12-29T00:56:22.155Z,47.45
2018-12-29T00:58:51.040Z,46.33
2018-12-29T01:01:19.943Z,48.95
2018-12-29T01:03:49.276Z,46.30
2018-12-29T01:06:18.180Z,55.90
2018-12-29T01:08:47.100Z,69.37
2018-12-29T01:11:16.002Z,55.08
2018-12-29T01:13:45.010Z,51.95
2018-12-29T01:16:14.067Z,64.37
2018-12-29T01:18:43.267Z,52.38
2018-12-29T01:21:12.172Z,68.47
2018-12-29T01:23:41.045Z,54.63
2018-12-29T01:26:09.930Z,64.22
2018-12-29T01:28:38.822Z,48.28
2018-12-29T01:31:10.943Z,70.10
2018-12-29T01:33:40.241Z,48.73
2018-12-29T01:36:09.286Z,58.35
2018-12-29T01:38:38.370Z,56.45
2018-12-29T01:41:07.395Z,54.27
2018-12-29T01:43:36.430Z,49.65
2018-12-29T01:46:05.503Z,58.30
2018-12-29T01:48:34.512Z,54.33
2018-12-29T01:51:03.762Z,58.80
2018-12-29T01:53:32.869Z,53.35
2018-12-29T01:56:02.153Z,51.58
2018-12-29T01:58:31.262Z,57.62
2018-12-29T02:01:00.231Z,54.88
2018-12-29T02:03:29.190Z,52.38
2018-12-29T02:05:58.179Z,58.70
2018-12-29T02:08:27.235Z,51.10
2018-12-29T02:10:56.145Z,52.83
2018-12-29T02:13:25.186Z,50.98
2018-12-29T02:15:54.059Z,48.87
2018-12-29T02:18:23.113Z,41.60
2018-12-29T02:20:52.074Z,49.23
2018-12-29T02:23:21.163Z,48.42
2018-12-29T02:25:50.196Z,50.55
2018-12-29T02:28:19.883Z,45.00
2018-12-29T02:30:48.851Z,42.40
2018-12-29T02:33:17.868Z,44.35
2018-12-29T02:35:46.815Z,42.98
2018-12-29T02:38:15.799Z,44.77
2018-12-29T02:40:44.715Z,45.73
2018-12-29T02:43:13.715Z,45.58
2018-12-29T02:45:43.604Z,38.00
2018-12-29T02:48:13.210Z,42.67
2018-12-29T02:50:42.464Z,47.38
2018-12-29T02:53:11.424Z,48.90
2018-12-29T02:55:40.361Z,49.23
2018-12-29T02:58:09.388Z,52.05
2018-12-29T03:00:38.358Z,52.30
2018-12-29T03:03:07.424Z,61.75
2018-12-29T03:05:36.415Z,60.52
2018-12-29T03:08:05.394Z,55.12
2018-12-29T03:10:34.432Z,49.23
2018-12-29T03:13:03.505Z,52.27
2018-12-29T03:15:32.438Z,55.17
2018-12-29T03:18:01.561Z,55.90
2018-12-29T03:20:30.451Z,59.13
2018-12-29T03:22:59.411Z,52.58
2018-12-29T03:25:28.314Z,61.58
2018-12-29T03:27:57.239Z,54.38
2018-12-29T03:30:26.392Z,53.87
2018-12-29T03:32:55.465Z,50.70
2018-12-29T03:35:24.515Z,49.73
2018-12-29T03:37:53.467Z,49.18
2018-12-29T03:40:22.452Z,45.63
2018-12-29T03:42:51.467Z,49.83
2018-12-29T03:45:20.526Z,50.20
2018-12-29T03:47:49.677Z,50.67
2018-12-29T03:50:18.652Z,47.55
2018-12-29T03:52:47.777Z,54.63
2018-12-29T03:55:17.097Z,50.17
2018-12-29T03:57:46.711Z,41.77
2018-12-29T04:00:15.660Z,44.48
2018-12-29T04:02:44.800Z,54.05
2018-12-29T04:05:13.738Z,46.05
2018-12-29T04:07:42.712Z,47.83
2018-12-29T04:10:15.283Z,43.35
2018-12-29T04:12:47.865Z,45.30
2018-12-29T04:15:16.954Z,44.25
2018-12-29T04:17:46.043Z,46.98
2018-12-29T04:20:15.018Z,45.30
2018-12-29T04:22:44.080Z,51.05
2018-12-29T04:25:13.882Z,47.88
2018-12-29T04:27:42.967Z,49.93
2018-12-29T04:30:12.130Z,42.98
2018-12-29T04:32:41.035Z,47.48
2018-12-29T04:35:10.050Z,51.73
2018-12-29T04:37:39.051Z,51.08
2018-12-29T04:40:08.012Z,56.37
2018-12-29T04:42:36.984Z,42.38
2018-12-29T04:45:06.150Z,52.48
2018-12-29T04:47:35.038Z,46.15
2018-12-29T04:50:04.797Z,53.15
2018-12-29T04:52:34.822Z,53.92
2018-12-29T04:55:03.758Z,51.90
2018-12-29T04:57:32.965Z,53.33
2018-12-29T05:00:01.804Z,47.55
2018-12-29T05:02:30.756Z,47.50
2018-12-29T05:04:59.652Z,51.28
2018-12-29T05:07:28.468Z,54.23
2018-12-29T05:09:57.332Z,47.33
2018-12-29T05:12:26.262Z,50.52
2018-12-29T05:14:55.112Z,52.10
2018-12-29T05:17:24.517Z,48.83
2018-12-29T05:19:53.364Z,51.53
2018-12-29T05:22:22.309Z,48.80
2018-12-29T05:24:51.197Z,43.38
2018-12-29T05:27:20.677Z,44.70
2018-12-29T05:29:49.724Z,41.60
2018-12-29T05:32:18.559Z,49.27
2018-12-29T05:34:47.418Z,41.10
2018-12-29T05:37:16.344Z,37.55
2018-12-29T05:39:45.205Z,43.17
2018-12-29T05:42:14.330Z,44.88
2018-12-29T05:44:43.542Z,45.03
2018-12-29T05:47:12.442Z,43.08
2018-12-29T05:49:41.334Z,41.48
2018-12-29T05:52:10.266Z,47.30
2018-12-29T05:54:39.204Z,44.13
2018-12-29T05:57:08.125Z,46.68
2018-12-29T05:59:37.058Z,38.05
2018-12-29T06:02:06.513Z,42.83
2018-12-29T06:04:35.633Z,41.90
2018-12-29T06:07:04.520Z,46.77
2018-12-29T06:09:33.379Z,49.85
2018-12-29T06:12:02.546Z,42.73
2018-12-29T06:14:31.474Z,43.40
2018-12-29T06:17:00.668Z,37.40
2018-12-29T06:19:29.733Z,43.63
2018-12-29T06:21:58.869Z,44.38
2018-12-29T06:24:27.709Z,44.15
2018-12-29T06:26:56.928Z,43.23
2018-12-29T06:29:25.748Z,41.63
2018-12-29T06:31:54.581Z,47.55
2018-12-29T06:34:23.437Z,44.03
2018-12-29T06:36:52.405Z,42.25
2018-12-29T06:39:21.291Z,45.17
2018-12-29T06:41:50.397Z,41.28
2018-12-29T06:44:19.249Z,35.73
2018-12-29T06:46:48.099Z,40.92
2018-12-29T06:49:17.033Z,38.65
2018-12-29T06:51:46.210Z,44.50
2018-12-29T06:54:15.079Z,41.85
2018-12-29T06:56:44.028Z,43.23
2018-12-29T06:59:13.733Z,38.75
2018-12-29T07:01:42.766Z,42.15
2018-12-29T07:04:11.686Z,48.50
2018-12-29T07:06:40.586Z,41.68
2018-12-29T07:09:09.855Z,50.17
2018-12-29T07:11:38.796Z,43.00
2018-12-29T07:14:07.766Z,42.53
2018-12-29T07:16:42.215Z,51.28
2018-12-29T07:19:07.304Z,41.30
2018-12-29T07:21:36.364Z,47.00
2018-12-29T07:24:05.378Z,45.30
2018-12-29T07:26:34.301Z,36.80
2018-12-29T07:29:04.163Z,39.13
2018-12-29T07:31:33.491Z,42.38
2018-12-29T07:34:02.673Z,35.55
2018-12-29T07:36:31.595Z,36.48
2018-12-29T07:39:00.666Z,37.58
2018-12-29T07:41:29.655Z,37.40
2018-12-29T07:43:58.739Z,38.92
2018-12-29T07:46:27.722Z,45.67
2018-12-29T07:48:56.670Z,43.02
2018-12-29T07:51:25.640Z,43.50
2018-12-29T07:53:55.069Z,36.95
2018-12-29T07:56:24.321Z,41.58
2018-12-29T07:58:53.338Z,46.98
2018-12-29T08:01:22.312Z,42.15
2018-12-29T08:03:51.341Z,41.18
2018-12-29T08:06:20.390Z,41.08
2018-12-29T08:08:49.306Z,44.55
2018-12-29T08:11:18.299Z,41.80
2018-12-29T08:13:47.188Z,41.85
2018-12-29T08:16:16.079Z,40.70
2018-12-29T08:18:45.165Z,47.03
2018-12-29T08:21:14.122Z,38.58
2018-12-29T08:23:42.999Z,43.50
2018-12-29T08:26:11.978Z,37.60
2018-12-29T08:28:40.944Z,39.90
2018-12-29T08:31:10.423Z,42.67
2018-12-29T08:33:39.570Z,42.95
2018-12-29T08:36:08.438Z,45.90
2018-12-29T08:38:37.467Z,38.25
2018-12-29T08:41:06.491Z,35.60
2018-12-29T08:43:35.472Z,38.35
2018-12-29T08:46:04.521Z,45.15
2018-12-29T08:48:33.378Z,37.03
2018-12-29T08:51:02.449Z,40.92
2018-12-29T08:53:31.467Z,38.60
2018-12-29T08:56:00.435Z,35.13
2018-12-29T08:58:29.430Z,43.23
2018-12-29T09:00:58.402Z,40.73
2018-12-29T09:03:28.391Z,42.25
2018-12-29T09:05:57.325Z,40.67
2018-12-29T09:08:26.277Z,38.28
2018-12-29T09:10:55.210Z,34.25
2018-12-29T09:13:24.082Z,39.30
2018-12-29T09:15:53.103Z,40.73
2018-12-29T09:18:22.026Z,41.70
2018-12-29T09:20:50.932Z,37.80
2018-12-29T09:23:19.970Z,35.88
2018-12-29T09:25:48.860Z,36.65
2018-12-29T09:28:17.781Z,34.15
2018-12-29T09:30:46.858Z,38.10
2018-12-29T09:33:15.858Z,36.77
2018-12-29T09:35:44.722Z,40.25
2018-12-29T09:38:13.989Z,34.92
2018-12-29T09:40:42.985Z,40.80
2018-12-29T09:43:11.961Z,37.08
2018-12-29T09:45:41.012Z,38.13
2018-12-29T09:48:10.291Z,32.50
2018-12-29T09:50:39.588Z,39.27
2018-12-29T09:53:08.571Z,38.13
2018-12-29T09:55:37.431Z,37.90
2018-12-29T09:58:06.404Z,38.73
2018-12-29T10:00:35.269Z,42.23
2018-12-29T10:03:04.256Z,42.10
2018-12-29T10:05:33.466Z,40.88
2018-12-29T10:08:02.360Z,36.88
2018-12-29T10:10:31.410Z,38.45
2018-12-29T10:13:00.374Z,40.20
2018-12-29T10:15:29.329Z,37.30
2018-12-29T10:17:58.193Z,42.25
2018-12-29T10:20:27.047Z,38.78
2018-12-29T10:22:56.504Z,36.80
2018-12-29T10:25:25.422Z,40.60
2018-12-29T10:27:54.443Z,40.80
2018-12-29T10:30:23.452Z,41.28
2018-12-29T10:32:52.397Z,38.25
2018-12-29T10:35:21.361Z,35.85
2018-12-29T10:37:50.289Z,36.98
2018-12-29T10:40:19.264Z,35.55
2018-12-29T10:42:48.221Z,46.08
2018-12-29T10:45:17.462Z,42.38
2018-12-29T10:47:46.358Z,36.15
2018-12-29T10:50:15.328Z,38.88
2018-12-29T10:52:44.332Z,50.55
2018-12-29T10:55:13.616Z,39.73
2018-12-29T10:57:42.828Z,40.92
2018-12-29T11:00:12.558Z,41.92
2018-12-29T11:02:41.558Z,40.80
2018-12-29T11:05:10.540Z,42.90
2018-12-29T11:07:39.576Z,48.15
2018-12-29T11:10:08.446Z,44.27
2018-12-29T11:12:37.406Z,43.95
2018-12-29T11:15:06.441Z,36.50
2018-12-29T11:17:42.132Z,42.83
2018-12-29T11:20:06.142Z,45.28
2018-12-29T11:22:35.206Z,49.83
2018-12-29T11:25:04.195Z,46.42
2018-12-29T11:27:33.193Z,43.45
2018-12-29T11:30:03.080Z,43.83
2018-12-29T11:32:32.013Z,41.37
2018-12-29T11:35:01.586Z,41.80
2018-12-29T11:37:30.601Z,39.75
2018-12-29T11:39:59.574Z,42.25
2018-12-29T11:42:28.770Z,40.28
2018-12-29T11:44:57.712Z,47.88
2018-12-29T11:47:26.989Z,46.05
2018-12-29T11:49:55.854Z,39.73
2018-12-29T11:52:24.997Z,39.48
2018-12-29T11:54:54.359Z,43.70
2018-12-29T11:57:23.261Z,37.83
2018-12-29T11:59:52.233Z,42.33
2018-12-29T12:02:24.549Z,40.98
2018-12-29T12:04:51.778Z,40.92
2018-12-29T12:07:21.578Z,42.33
2018-12-29T12:09:50.779Z,44.77
2018-12-29T12:12:20.515Z,43.98
2018-12-29T12:14:49.801Z,41.58
2018-12-29T12:17:18.735Z,38.48
2018-12-29T12:19:47.791Z,44.75
2018-12-29T12:22:17.747Z,38.63
2018-12-29T12:24:46.705Z,41.60
2018-12-29T12:27:15.905Z,40.12
2018-12-29T12:29:45.302Z,41.73
2018-12-29T12:32:14.440Z,35.28
2018-12-29T12:34:43.299Z,35.38
2018-12-29T12:37:12.385Z,41.40
2018-12-29T12:39:41.921Z,40.30
2018-12-29T12:42:10.892Z,39.70
2018-12-29T12:44:39.887Z,41.25
2018-12-29T12:47:09.487Z,43.25
2018-12-29T12:49:38.546Z,40.63
2018-12-29T12:52:07.972Z,40.20
2018-12-29T12:54:36.969Z,38.73
2018-12-29T12:57:07.479Z,43.63
2018-12-29T12:59:36.858Z,40.67
2018-12-29T13:02:06.378Z,39.45
2018-12-29T13:04:35.309Z,42.48
2018-12-29T13:07:04.652Z,35.43
2018-12-29T13:09:33.669Z,41.42
2018-12-29T13:12:03.326Z,33.55
2018-12-29T13:14:33.479Z,44.95
2018-12-29T13:17:02.869Z,38.40
2018-12-29T13:19:31.883Z,43.68
2018-12-29T13:22:01.682Z,37.75
2018-12-29T13:24:30.699Z,34.23
2018-12-29T13:26:59.613Z,42.33
2018-12-29T13:29:29.107Z,39.23
2018-12-29T13:31:58.369Z,37.58
2018-12-29T13:34:30.606Z,36.73
2018-12-29T13:36:59.686Z,40.03
2018-12-29T13:39:28.915Z,45.05
2018-12-29T13:41:58.547Z,37.70
2018-12-29T13:44:27.541Z,42.75
2018-12-29T13:46:57.503Z,36.38
2018-12-29T13:49:26.500Z,33.28
2018-12-29T13:51:56.658Z,37.63
2018-12-29T13:54:26.426Z,42.15
2018-12-29T13:56:55.393Z,33.18
2018-12-29T13:59:24.378Z,34.85
2018-12-29T14:01:54.667Z,32.40
2018-12-29T14:04:23.605Z,42.90
2018-12-29T14:06:52.578Z,39.10
2018-12-29T14:09:21.683Z,36.20
2018-12-29T14:11:50.563Z,37.20
2018-12-29T14:14:20.620Z,34.78
2018-12-29T14:16:49.555Z,39.67
2018-12-29T14:19:18.773Z,36.70
2018-12-29T14:21:48.224Z,40.48
2018-12-29T14:24:17.185Z,35.03
2018-12-29T14:26:46.620Z,37.33
2018-12-29T14:32:44.634Z,32.00
2018-12-29T14:35:13.506Z,31.75
2018-12-29T14:37:42.367Z,36.25
2018-12-29T14:40:11.234Z,34.55
2018-12-29T14:42:40.133Z,33.73
2018-12-29T14:45:09.100Z,33.55
2018-12-29T14:47:38.987Z,32.93
2018-12-29T14:50:07.998Z,38.45
2018-12-29T14:52:37.386Z,35.15
2018-12-29T14:55:06.695Z,39.13
2018-12-29T14:57:35.937Z,36.10
2018-12-29T15:00:05.139Z,32.67
2018-12-29T15:02:34.094Z,46.33
2018-12-29T15:05:03.395Z,32.88
2018-12-29T15:07:32.630Z,38.35
2018-12-29T15:10:01.563Z,38.13
2018-12-29T15:12:30.602Z,37.60
2018-12-29T15:14:59.954Z,39.90
2018-12-29T15:17:28.940Z,37.95
2018-12-29T15:19:57.914Z,32.33
2018-12-29T15:22:26.850Z,37.28
2018-12-29T15:24:56.096Z,35.23
2018-12-29T15:27:25.085Z,37.10
2018-12-29T15:29:54.011Z,37.75
2018-12-29T15:32:23.210Z,30.90
2018-12-29T15:34:52.231Z,36.68
2018-12-29T15:37:21.220Z,38.02
2018-12-29T15:39:50.245Z,37.65
2018-12-29T15:42:19.710Z,36.23
2018-12-29T15:44:48.888Z,38.20
2018-12-29T15:47:17.778Z,34.40
2018-12-29T15:49:47.104Z,39.13
2018-12-29T15:52:16.002Z,38.25
2018-12-29T15:54:45.655Z,41.15
2018-12-29T15:57:14.651Z,43.38
2018-12-29T15:59:44.103Z,38.48
2018-12-29T16:02:13.064Z,36.30
2018-12-29T16:04:41.999Z,41.28
2018-12-29T16:07:10.961Z,42.73
2018-12-29T16:10:00.514Z,48.55
2018-12-29T16:12:29.426Z,38.95
2018-12-29T16:14:58.359Z,34.63
2018-12-29T16:17:27.326Z,36.35
2018-12-29T16:19:56.676Z,35.73
2018-12-29T16:22:25.605Z,38.30
2018-12-29T16:24:54.669Z,34.30
2018-12-29T16:27:23.731Z,36.58
2018-12-29T16:29:52.652Z,35.03
2018-12-29T16:32:21.582Z,37.88
2018-12-29T16:34:50.682Z,35.90
2018-12-29T16:37:20.055Z,35.25
2018-12-29T16:39:48.921Z,36.88
2018-12-29T16:42:17.861Z,33.75
2018-12-29T16:44:47.027Z,33.80
2018-12-29T16:47:15.935Z,36.73
2018-12-29T16:49:44.829Z,44.27
2018-12-29T16:52:13.757Z,37.00
2018-12-29T16:54:42.723Z,36.75
2018-12-29T16:57:11.691Z,36.25
2018-12-29T16:59:40.779Z,39.55
2018-12-29T17:02:09.719Z,34.40
2018-12-29T17:04:38.763Z,35.68
2018-12-29T17:07:07.722Z,37.58
2018-12-29T17:09:36.861Z,35.90
2018-12-29T17:12:07.044Z,38.00
2018-12-29T17:14:36.106Z,38.38
2018-12-29T17:17:05.036Z,37.65
2018-12-29T17:19:35.267Z,43.70
2018-12-29T17:22:04.327Z,38.98
2018-12-29T17:24:33.670Z,37.28
2018-12-29T17:27:03.287Z,41.48
2018-12-29T17:29:32.370Z,42.35
2018-12-29T17:32:01.523Z,39.90
2018-12-29T17:34:30.467Z,37.15
2018-12-29T17:36:59.485Z,34.20
2018-12-29T17:39:28.487Z,39.20
2018-12-29T17:41:57.568Z,44.13
2018-12-29T17:44:26.651Z,37.42
2018-12-29T17:46:55.896Z,40.17
2018-12-29T17:49:24.906Z,39.13
2018-12-29T17:51:55.650Z,36.45
2018-12-29T17:54:24.666Z,45.03
2018-12-29T17:56:53.634Z,39.50
2018-12-29T17:59:22.847Z,41.45
2018-12-29T18:01:52.182Z,40.33
2018-12-29T18:04:21.178Z,37.33
2018-12-29T18:06:50.336Z,37.15
2018-12-29T18:09:19.990Z,36.85
2018-12-29T18:11:49.067Z,37.45
2018-12-29T18:14:18.083Z,32.50
2018-12-29T18:16:47.876Z,35.85
2018-12-29T18:19:17.426Z,30.30
2018-12-29T18:21:46.542Z,29.70
2018-12-29T18:24:15.571Z,27.85
2018-12-29T18:26:44.771Z,30.95
2018-12-29T18:29:13.841Z,32.08
2018-12-29T18:31:42.947Z,33.53
2018-12-29T18:34:12.527Z,32.35
2018-12-29T18:36:41.681Z,39.55
2018-12-29T18:39:10.735Z,35.48
2018-12-29T18:41:39.695Z,32.20
2018-12-29T18:44:09.196Z,38.60
2018-12-29T18:46:38.343Z,37.78
2018-12-29T18:49:08.307Z,35.48
2018-12-29T18:51:37.451Z,38.78
2018-12-29T18:54:06.764Z,34.53
2018-12-29T18:56:35.810Z,32.38
2018-12-29T18:59:05.294Z,40.52
2018-12-29T19:01:34.318Z,39.40
2018-12-29T19:04:03.523Z,30.82
2018-12-29T19:06:32.535Z,35.40
2018-12-29T19:09:01.465Z,37.73
2018-12-29T19:11:30.619Z,30.45
2018-12-29T19:13:59.842Z,31.00
2018-12-29T19:16:28.856Z,30.15
2018-12-29T19:19:01.331Z,28.30
2018-12-29T19:21:30.483Z,28.05
2018-12-29T19:24:01.568Z,25.37
2018-12-29T19:26:30.912Z,24.12
2018-12-29T19:29:00.239Z,24.43
2018-12-29T19:31:29.183Z,24.20
2018-12-29T19:34:00.239Z,25.77
2018-12-29T19:36:30.655Z,22.67
2018-12-29T19:39:01.477Z,25.20
2018-12-29T19:41:33.521Z,27.32
2018-12-29T19:44:05.655Z,25.70
2018-12-29T19:46:36.943Z,32.65
2018-12-29T19:49:08.659Z,25.57
2018-12-29T19:51:37.636Z,28.52
2018-12-29T19:54:09.659Z,26.73
2018-12-29T19:56:41.192Z,25.08
2018-12-29T19:59:10.731Z,26.20
2018-12-29T20:01:42.622Z,26.07
2018-12-29T20:04:15.066Z,29.80
2018-12-29T20:06:46.461Z,28.20
2018-12-29T20:09:15.675Z,33.83
2018-12-29T20:11:44.812Z,30.37
2018-12-29T20:14:17.007Z,34.05
2018-12-29T20:16:57.931Z,32.48
2018-12-29T20:19:33.384Z,38.25
2018-12-29T20:22:05.385Z,33.42
2018-12-29T20:24:34.671Z,32.33
2018-12-29T20:27:03.843Z,34.83
2018-12-29T20:29:38.400Z,25.00
2018-12-29T20:32:10.068Z,29.70
2018-12-29T20:34:39.076Z,26.25
2018-12-29T20:37:09.562Z,30.70
2018-12-29T20:39:41.479Z,25.15
2018-12-29T20:42:14.884Z,38.45
2018-12-29T20:44:44.404Z,33.15
2018-12-29T20:47:13.285Z,25.50
2018-12-29T20:49:45.456Z,40.08
2018-12-29T20:52:17.110Z,30.82
2018-12-29T20:54:52.421Z,32.00
2018-12-29T20:57:21.499Z,52.10
2018-12-29T20:59:53.258Z,30.23
2018-12-29T21:02:25.390Z,33.42
2018-12-29T21:04:57.183Z,31.97
2018-12-29T21:07:26.467Z,42.78
2018-12-29T21:09:55.338Z,35.92
2018-12-29T21:12:24.430Z,34.67
2018-12-29T21:14:53.476Z,40.03
2018-12-29T21:17:25.129Z,41.35
2018-12-29T21:19:54.168Z,39.90
2018-12-29T21:22:23.319Z,33.90
2018-12-29T21:24:55.515Z,37.95
2018-12-29T21:27:24.644Z,39.27
2018-12-29T21:29:56.399Z,36.38
2018-12-29T21:32:25.993Z,37.20
2018-12-29T21:35:14.205Z,36.77
2018-12-29T21:37:47.559Z,42.65
2018-12-29T21:40:16.662Z,44.65
2018-12-29T21:42:45.924Z,31.48
2018-12-29T21:45:15.026Z,33.60
2018-12-29T21:47:44.194Z,29.85
2018-12-29T21:50:13.388Z,28.42
2018-12-29T21:52:42.448Z,33.18
2018-12-29T21:55:12.026Z,27.85
2018-12-29T21:57:41.130Z,34.15
2018-12-29T22:00:13.040Z,33.53
2018-12-29T22:02:42.147Z,36.10
2018-12-29T22:05:11.257Z,36.60
2018-12-29T22:07:40.690Z,32.23
2018-12-29T22:10:09.751Z,29.40
2018-12-29T22:12:38.801Z,30.90
2018-12-29T22:15:08.915Z,32.28
2018-12-29T22:17:37.929Z,29.07
2018-12-29T22:20:07.895Z,33.15
2018-12-29T22:22:37.002Z,26.50
2018-12-29T22:25:06.141Z,25.32
2018-12-29T22:27:35.133Z,25.50
2018-12-29T22:30:04.364Z,19.82
2018-12-29T22:32:33.251Z,25.62
2018-12-29T22:35:02.335Z,21.50
2018-12-29T22:37:31.360Z,24.25
2018-12-29T22:40:00.427Z,19.15
2018-12-29T22:42:29.385Z,25.20
2018-12-29T22:44:58.512Z,21.73
2018-12-29T22:47:27.735Z,19.37
2018-12-29T22:49:56.858Z,20.30
2018-12-29T22:52:26.141Z,18.32
2018-12-29T22:54:55.779Z,19.35
2018-12-29T22:57:25.251Z,17.00
2018-12-29T22:59:55.042Z,14.23
2018-12-29T23:02:24.723Z,22.55
2018-12-29T23:04:54.069Z,13.30
2018-12-29T23:07:23.673Z,16.17
2018-12-29T23:09:53.273Z,14.87
2018-12-29T23:12:22.974Z,23.70
2018-12-29T23:14:52.664Z,18.00
2018-12-29T23:17:22.255Z,13.22
2018-12-29T23:19:51.896Z,11.38
2018-12-29T23:22:21.795Z,13.53
2018-12-29T23:24:51.675Z,14.95
2018-12-29T23:27:23.127Z,11.05
2018-12-29T23:29:54.089Z,11.95
2018-12-29T23:32:23.680Z,14.43
2018-12-29T23:35:13.380Z,12.15
2018-12-29T23:37:43.183Z,12.78
2018-12-29T23:40:12.692Z,10.45
2018-12-29T23:42:42.230Z,9.63
2018-12-29T23:45:11.740Z,11.30
2018-12-29T23:47:41.211Z,9.90
2018-12-29T23:50:13.386Z,10.78
2018-12-29T23:52:45.661Z,11.33
2018-12-29T23:55:15.214Z,11.10
2018-12-29T23:57:46.095Z,9.85
